Newark, New Jersey
Current Conditions -  °F | °C
As of 7:51 PM on Monday 26 Jan 2015 (Local Time) from KEWR Reporting Station
Light Snow Light Snow  
Wind Chill: 14°   Ceiling: 1400
Heat Index: 26°   Visibility: 7mi
Dew Point: 22°   Wind: 16mph
Humidity: 84%   Direction: 20°NNE
Pressure: 29.81"   Gusts: NA
Location:  40.73°N, 74.17°W
Report Text: KEWR 270051Z 02014KT 7SM -SN FEW008 BKN014 OVC025 M03/M06 A2981 RMK AO2 SLP094 P0000 T10331056
Loading
Personal Weather Stations






























Interactive Weather Map New forecast layout! Learn more

10-Day Weather Forecast

Advertisements
Track Severe Weather on mobile